createdAt,value
2019-04-05T00:00:40.322Z,16.40
2019-04-05T00:05:46.405Z,16.13
2019-04-05T00:10:48.469Z,16.40
2019-04-05T00:15:53.693Z,15.60
2019-04-05T00:20:56.081Z,16.40
2019-04-05T00:25:58.404Z,15.07
2019-04-05T00:31:00.407Z,15.80
2019-04-05T00:36:07.604Z,14.93
2019-04-05T00:41:12.673Z,14.60
2019-04-05T00:46:14.663Z,15.57
2019-04-05T00:51:19.162Z,15.77
2019-04-05T00:56:25.537Z,15.20
2019-04-05T01:01:31.062Z,13.97
2019-04-05T01:06:34.152Z,14.63
2019-04-05T01:11:36.800Z,14.87
2019-04-05T01:16:39.644Z,15.67
2019-04-05T01:21:45.923Z,15.63
2019-04-05T01:26:49.477Z,15.70
2019-04-05T01:31:51.644Z,16.13
2019-04-05T01:36:53.882Z,16.23
2019-04-05T01:41:56.273Z,16.13
2019-04-05T01:46:59.228Z,15.07
2019-04-05T01:52:01.253Z,15.87
2019-04-05T01:57:03.687Z,15.93
2019-04-05T02:02:05.692Z,15.37
2019-04-05T02:07:07.850Z,16.27
2019-04-05T02:12:10.054Z,14.80
2019-04-05T02:17:14.664Z,15.73
2019-04-05T02:22:16.685Z,16.23
2019-04-05T02:27:20.069Z,15.87
2019-04-05T02:32:22.074Z,15.93
2019-04-05T02:37:24.301Z,15.97
2019-04-05T02:42:27.251Z,15.80
2019-04-05T02:47:29.840Z,16.63
2019-04-05T02:52:34.537Z,16.40
2019-04-05T02:57:39.609Z,18.70
2019-04-05T03:02:42.133Z,17.37
2019-04-05T03:07:44.289Z,17.50
2019-04-05T03:12:46.291Z,18.17
2019-04-05T03:17:48.515Z,18.73
2019-04-05T03:22:50.705Z,19.20
2019-04-05T03:27:52.858Z,19.47
2019-04-05T03:32:54.949Z,18.93
2019-04-05T03:37:57.202Z,19.80
2019-04-05T03:42:59.633Z,19.17
2019-04-05T03:48:04.546Z,19.17
2019-04-05T03:53:06.963Z,19.10
2019-04-05T03:58:09.531Z,20.83
2019-04-05T04:03:11.761Z,19.70
2019-04-05T04:08:14.057Z,19.03
2019-04-05T04:13:16.347Z,20.23
2019-04-05T04:18:18.409Z,19.43
2019-04-05T04:23:24.011Z,20.03
2019-04-05T04:28:26.620Z,20.47
2019-04-05T04:33:29.683Z,20.23
2019-04-05T04:38:31.993Z,19.90
2019-04-05T04:43:37.496Z,19.50
2019-04-05T04:48:39.625Z,18.77
2019-04-05T04:53:43.611Z,20.27
2019-04-05T04:58:46.402Z,20.03
2019-04-05T05:03:48.920Z,19.63
2019-04-05T05:08:51.406Z,20.10
2019-04-05T05:13:53.519Z,19.80
2019-04-05T05:18:59.025Z,19.17
2019-04-05T05:24:06.563Z,20.17
2019-04-05T05:29:09.577Z,20.67
2019-04-05T05:34:11.700Z,21.20
2019-04-05T05:39:15.408Z,22.47
2019-04-05T05:44:17.639Z,20.87
2019-04-05T05:49:22.228Z,20.53
2019-04-05T05:54:24.315Z,19.80
2019-04-05T05:59:29.684Z,19.47
2019-04-05T06:04:30.412Z,17.23
2019-04-05T06:09:33.470Z,16.37
2019-04-05T06:14:35.643Z,14.83
2019-04-05T06:19:41.503Z,16.07
2019-04-05T06:24:43.523Z,15.00
2019-04-05T06:29:47.325Z,15.27
2019-04-05T06:34:49.691Z,15.07
2019-04-05T06:39:51.683Z,13.67
2019-04-05T06:44:53.914Z,14.00
2019-04-05T06:49:55.975Z,12.97
2019-04-05T06:54:58.261Z,12.87
2019-04-05T07:00:00.290Z,12.03
2019-04-05T07:05:02.477Z,11.80
2019-04-05T07:10:05.588Z,11.80
2019-04-05T07:15:10.052Z,10.60
2019-04-05T07:20:13.926Z,10.93
2019-04-05T07:25:16.179Z,9.50
2019-04-05T07:30:19.883Z,10.73
2019-04-05T07:35:33.338Z,9.70
2019-04-05T07:40:31.384Z,9.90
2019-04-05T07:45:33.653Z,9.97
2019-04-05T07:50:35.678Z,9.33
2019-04-05T07:55:37.675Z,8.70
2019-04-05T08:00:48.752Z,8.00
2019-04-05T08:05:53.225Z,7.30
2019-04-05T08:10:57.905Z,7.47
2019-04-05T08:16:01.552Z,7.57
2019-04-05T08:21:03.614Z,6.70
2019-04-05T08:26:05.792Z,6.83
2019-04-05T08:31:10.781Z,6.90
2019-04-05T08:36:11.886Z,7.13
2019-04-05T08:41:14.279Z,7.03
2019-04-05T08:46:16.302Z,7.17
2019-04-05T08:51:20.368Z,7.10
2019-04-05T08:56:28.459Z,7.20
2019-04-05T09:01:32.578Z,6.77
2019-04-05T09:06:34.955Z,6.80
2019-04-05T09:11:38.300Z,6.97
2019-04-05T09:16:43.894Z,6.90
2019-04-05T09:21:45.889Z,7.00
2019-04-05T09:26:47.893Z,6.67
2019-04-05T09:31:49.889Z,7.30
2019-04-05T09:36:52.000Z,7.17
2019-04-05T09:41:56.432Z,7.97
2019-04-05T09:47:00.966Z,8.07
2019-04-05T09:52:07.761Z,7.27
2019-04-05T09:57:10.033Z,7.43
2019-04-05T10:02:12.021Z,7.53
2019-04-05T10:07:14.327Z,7.97
2019-04-05T10:12:16.355Z,7.77
2019-04-05T10:17:21.160Z,7.97
2019-04-05T10:22:23.267Z,7.90
2019-04-05T10:27:25.592Z,7.93
2019-04-05T10:32:27.597Z,8.00
2019-04-05T10:37:32.004Z,9.77
2019-04-05T10:42:35.978Z,9.90
2019-04-05T10:47:38.118Z,8.83
2019-04-05T10:52:41.469Z,8.80
2019-04-05T10:57:43.710Z,8.27
2019-04-05T11:02:46.991Z,8.47
2019-04-05T11:07:52.134Z,8.27
2019-04-05T11:12:54.143Z,8.03
2019-04-05T11:17:56.435Z,8.47
2019-04-05T11:23:00.992Z,9.13
2019-04-05T11:28:05.340Z,11.07
2019-04-05T11:33:07.358Z,11.33
2019-04-05T11:38:24.228Z,12.63
2019-04-05T11:43:31.365Z,11.47
2019-04-05T11:48:45.916Z,11.70
2019-04-05T11:53:48.414Z,6.73
2019-04-05T11:58:51.923Z,8.40
2019-04-05T12:03:54.442Z,7.10
2019-04-05T12:08:59.320Z,11.23
2019-04-05T12:14:01.582Z,9.60
2019-04-05T12:19:04.759Z,7.37
2019-04-05T12:24:07.684Z,7.07
2019-04-05T12:29:12.072Z,7.40
2019-04-05T12:34:16.280Z,7.63
2019-04-05T12:39:18.806Z,8.07
2019-04-05T12:44:20.923Z,8.67
2019-04-05T12:49:23.026Z,9.30
2019-04-05T12:54:25.069Z,8.73
2019-04-05T12:59:27.112Z,8.47
2019-04-05T13:04:29.575Z,8.40
2019-04-05T13:09:31.803Z,8.10
2019-04-05T13:14:34.280Z,8.60
2019-04-05T13:19:36.569Z,9.27
2019-04-05T13:24:41.948Z,9.50
2019-04-05T13:29:44.722Z,9.70
2019-04-05T13:34:47.183Z,8.87
2019-04-05T13:39:49.213Z,8.90
2019-04-05T13:44:51.258Z,9.13
2019-04-05T13:49:53.272Z,8.87
2019-04-05T13:54:55.308Z,8.60
2019-04-05T13:59:57.347Z,9.13
2019-04-05T14:04:59.653Z,9.47
2019-04-05T14:10:05.484Z,9.27
2019-04-05T14:15:10.685Z,8.33
2019-04-05T14:20:12.909Z,7.50
2019-04-05T14:25:15.477Z,7.67
2019-04-05T14:30:18.219Z,8.10
2019-04-05T14:35:24.567Z,7.30
2019-04-05T14:40:28.383Z,7.30
2019-04-05T14:45:28.540Z,7.50
2019-04-05T14:50:32.492Z,6.97
2019-04-05T14:55:37.270Z,6.57
2019-04-05T15:00:39.387Z,7.60
2019-04-05T15:05:41.475Z,7.10
2019-04-05T15:10:43.592Z,7.93
2019-04-05T15:15:46.872Z,7.63
2019-04-05T15:20:48.904Z,7.40
2019-04-05T15:25:51.311Z,6.70
2019-04-05T15:30:55.913Z,7.30
2019-04-05T15:36:00.136Z,7.10
2019-04-05T15:41:01.592Z,7.00
2019-04-05T15:46:03.838Z,7.00
2019-04-05T15:51:05.836Z,6.90
2019-04-05T15:56:08.034Z,6.87
2019-04-05T16:01:13.474Z,6.87
2019-04-05T16:06:15.689Z,6.20
2019-04-05T16:11:17.728Z,5.93
2019-04-05T16:16:21.741Z,6.63
2019-04-05T16:21:26.814Z,6.70
2019-04-05T16:26:29.444Z,8.23
2019-04-05T16:31:34.068Z,7.23
2019-04-05T16:36:36.192Z,8.00
2019-04-05T16:41:40.202Z,7.33
2019-04-05T16:46:42.579Z,7.37
2019-04-05T16:51:44.630Z,7.00
2019-04-05T16:56:51.068Z,7.77
2019-04-05T17:01:53.056Z,7.43
2019-04-05T17:06:55.141Z,7.60
2019-04-05T17:11:57.179Z,7.57
2019-04-05T17:16:59.595Z,7.80
2019-04-05T17:22:01.657Z,7.43
2019-04-05T17:27:04.179Z,6.80
2019-04-05T17:32:06.248Z,7.10
2019-04-05T17:37:09.579Z,7.50
2019-04-05T17:42:11.658Z,6.90
2019-04-05T17:47:15.332Z,8.47
2019-04-05T17:52:19.156Z,7.63
2019-04-05T17:57:26.278Z,7.23
2019-04-05T18:02:28.333Z,7.23
2019-04-05T18:07:30.841Z,8.50
2019-04-05T18:12:32.914Z,7.20
2019-04-05T18:17:35.410Z,7.47
2019-04-05T18:22:37.486Z,6.93
2019-04-05T18:27:39.518Z,7.13
2019-04-05T18:32:41.592Z,7.30
2019-04-05T18:37:43.580Z,7.17
2019-04-05T18:42:46.732Z,7.43
2019-04-05T18:47:49.209Z,7.60
2019-04-05T18:52:51.230Z,7.73
2019-04-05T18:57:57.820Z,8.13
2019-04-05T19:03:02.832Z,8.10
2019-04-05T19:08:05.292Z,8.43
2019-04-05T19:13:07.380Z,7.70
2019-04-05T19:18:09.962Z,8.53
2019-04-05T19:23:11.994Z,8.17
2019-04-05T19:28:14.447Z,8.93
2019-04-05T19:53:33.650Z,9.23
2019-04-05T19:58:35.673Z,10.13
2019-04-05T20:03:39.786Z,10.33
2019-04-05T20:08:43.159Z,10.00
2019-04-05T20:13:45.345Z,10.47
2019-04-05T20:18:47.383Z,10.70
2019-04-05T20:23:49.569Z,11.90
2019-04-05T20:28:51.603Z,11.43
2019-04-05T20:33:53.677Z,10.77
2019-04-05T20:38:55.697Z,12.03
2019-04-05T20:43:57.762Z,11.50
2019-04-05T20:49:02.310Z,11.37
2019-04-05T20:54:04.540Z,11.77
2019-04-05T20:59:06.948Z,12.77
2019-04-05T21:04:08.961Z,12.07
2019-04-05T21:09:11.005Z,12.30
2019-04-05T21:14:13.319Z,13.17
2019-04-05T21:19:15.379Z,13.33
2019-04-05T21:24:17.617Z,14.30
2019-04-05T21:29:20.080Z,13.43
2019-04-05T21:34:25.093Z,13.67
2019-04-05T21:39:27.193Z,14.63
2019-04-05T21:44:29.692Z,13.93
2019-04-05T21:49:31.803Z,14.07
2019-04-05T21:54:47.223Z,14.67
2019-04-05T21:59:42.472Z,14.30
2019-04-05T22:04:50.622Z,14.83
2019-04-05T22:09:52.665Z,17.00
2019-04-05T22:14:55.056Z,15.43
2019-04-05T22:19:57.111Z,16.63
2019-04-05T22:24:59.756Z,18.33
2019-04-05T22:30:04.594Z,19.90
2019-04-05T22:35:09.632Z,18.93
2019-04-05T22:40:12.222Z,19.07
2019-04-05T22:45:17.325Z,20.80
2019-04-05T22:50:23.111Z,21.07
2019-04-05T22:55:25.202Z,21.33
2019-04-05T23:00:27.248Z,20.97
2019-04-05T23:05:29.374Z,20.97
2019-04-05T23:10:37.523Z,23.10
2019-04-05T23:15:39.680Z,23.07
2019-04-05T23:20:41.792Z,23.03
2019-04-05T23:25:43.977Z,24.37
2019-04-05T23:30:46.055Z,24.50
2019-04-05T23:35:50.857Z,24.80
2019-04-05T23:40:54.385Z,25.67
2019-04-05T23:45:56.784Z,26.03
2019-04-05T23:51:02.117Z,27.27
2019-04-05T23:56:04.612Z,26.30
